Time;durP1;ratioP1;P1;durP2;ratioP2;P2;SDS_P1;SDS_P2;PMS_P1;PMS_P2;Temp;Humidity;BMP_temperature;BMP_pressure;BME280_temperature;BME280_humidity;BME280_pressure;Samples;Min_cycle;Max_cycle;Signal;HPM_P1;HPM_P2
2023/01/12 00:03:35;;;;;;;;;;;9.20;99.90;;;;;;8387251;28;19951;-70
2023/01/12 00:07:36;;;;;;;;;;;9.20;99.90;;;;;;8353662;28;20408;-70
2023/01/12 00:11:38;;;;;;;;;;;9.20;99.90;;;;;;8367323;28;19924;-70
2023/01/12 00:20:01;;;;;;;;;;;9.20;99.90;;;;;;8382778;28;20392;-70
2023/01/12 00:24:03;;;;;;;;;;;9.10;99.90;;;;;;8381099;28;19984;-70
2023/01/12 00:28:06;;;;;;;;;;;9.10;99.90;;;;;;8376257;28;20015;-70
2023/01/12 00:32:12;;;;;;;;;;;9.00;99.90;;;;;;8376453;28;19987;-70
2023/01/12 00:36:15;;;;;;;;;;;9.00;99.90;;;;;;8380658;28;19974;-70
2023/01/12 00:40:17;;;;;;;;;;;8.90;99.90;;;;;;8377357;28;19939;-70
2023/01/12 00:48:39;;;;;;;;;;;8.90;99.90;;;;;;8381627;28;20032;-70
2023/01/12 00:52:41;;;;;;;;;;;8.90;99.90;;;;;;8376426;28;19928;-70
2023/01/12 00:56:42;;;;;;;;;;;8.90;99.90;;;;;;8380225;28;19929;-70
2023/01/12 01:00:44;;;;;;;;;;;8.90;99.90;;;;;;8388469;28;19932;-70
2023/01/12 01:04:45;;;;;;;;;;;8.90;99.90;;;;;;8381964;28;19924;-70
2023/01/12 01:08:47;;;;;;;;;;;8.90;99.90;;;;;;8384922;28;19936;-70
2023/01/12 01:12:49;;;;;;;;;;;8.90;99.90;;;;;;8371954;28;19955;-70
2023/01/12 01:26:59;;;;;;;;;;;8.90;99.90;;;;;;8384012;28;19919;-69
2023/01/12 01:31:03;;;;;;;;;;;8.90;99.90;;;;;;8379033;28;19924;-70
2023/01/12 01:35:05;;;;;;;;;;;9.00;99.90;;;;;;8374291;28;19924;-70
2023/01/12 01:39:07;;;;;;;;;;;9.00;99.90;;;;;;8376464;28;19925;-70
2023/01/12 01:43:22;;;;;;;;;;;9.00;99.90;;;;;;8383561;28;20600;-70
2023/01/12 01:47:26;;;;;;;;;;;9.00;99.90;;;;;;8380784;28;19972;-70
2023/01/12 01:51:28;;;;;;;;;;;9.10;99.90;;;;;;8387130;28;19924;-70
2023/01/12 01:56:08;;;;;;;;;;;9.10;99.90;;;;;;8370005;28;19931;-70
2023/01/12 02:00:10;;;;;;;;;;;9.10;99.90;;;;;;8275885;28;19943;-70
2023/01/12 02:04:12;;;;;;;;;;;9.10;99.90;;;;;;8324388;28;19925;-70
2023/01/12 02:08:18;;;;;;;;;;;9.00;99.90;;;;;;8383160;28;20023;-70
2023/01/12 02:16:47;;;;;;;;;;;9.00;99.90;;;;;;8374845;28;19935;-70
2023/01/12 02:20:49;;;;;;;;;;;9.00;99.90;;;;;;8376643;28;19924;-70
2023/01/12 02:24:55;;;;;;;;;;;9.00;99.90;;;;;;8380806;28;20300;-70
2023/01/12 02:29:00;;;;;;;;;;;9.00;99.90;;;;;;8365979;28;20414;-71
2023/01/12 02:33:06;;;;;;;;;;;8.90;99.90;;;;;;8376222;28;20077;-71
2023/01/12 02:37:11;;;;;;;;;;;8.90;99.90;;;;;;8384430;28;20431;-70
2023/01/12 02:41:12;;;;;;;;;;;8.90;99.90;;;;;;8380553;28;19928;-70
2023/01/12 02:45:21;;;;;;;;;;;8.80;99.90;;;;;;8383629;28;20221;-70
2023/01/12 02:49:25;;;;;;;;;;;8.90;99.90;;;;;;8395590;28;19979;-71
2023/01/12 02:53:46;;;;;;;;;;;8.80;99.90;;;;;;8386478;28;19924;-71
2023/01/12 02:57:48;;;;;;;;;;;8.80;99.90;;;;;;8380033;28;20415;-71
2023/01/12 03:01:51;;;;;;;;;;;8.90;99.90;;;;;;8377747;28;19924;-71
2023/01/12 03:05:57;;;;;;;;;;;8.80;99.90;;;;;;8379973;28;19991;-71
2023/01/12 03:10:08;;;;;;;;;;;8.90;99.90;;;;;;8373770;28;19931;-71
2023/01/12 03:14:11;;;;;;;;;;;8.90;99.90;;;;;;8389343;28;19935;-71
2023/01/12 03:18:14;;;;;;;;;;;8.90;99.90;;;;;;8389461;28;19956;-71
2023/01/12 03:22:16;;;;;;;;;;;8.90;99.90;;;;;;8365701;28;20472;-71
2023/01/12 03:26:22;;;;;;;;;;;8.80;99.90;;;;;;8381998;28;20591;-71
2023/01/12 03:30:37;;;;;;;;;;;8.80;99.90;;;;;;8381325;28;19983;-71
2023/01/12 03:34:39;;;;;;;;;;;8.80;99.90;;;;;;8367621;28;19964;-71
2023/01/12 03:38:40;;;;;;;;;;;8.70;99.90;;;;;;8377945;28;19924;-71
2023/01/12 03:42:42;;;;;;;;;;;8.70;99.90;;;;;;8381816;28;19987;-71
2023/01/12 03:46:49;;;;;;;;;;;8.70;99.90;;;;;;8384734;28;19951;-71
2023/01/12 03:50:59;;;;;;;;;;;8.70;99.90;;;;;;8381274;28;20265;-72
2023/01/12 03:55:02;;;;;;;;;;;8.70;99.90;;;;;;8381873;28;19924;-72
2023/01/12 03:59:04;;;;;;;;;;;8.60;99.90;;;;;;8374115;28;19983;-72
2023/01/12 04:03:13;;;;;;;;;;;8.60;99.90;;;;;;8383812;28;20295;-72
2023/01/12 04:07:14;;;;;;;;;;;8.50;99.90;;;;;;8368632;28;19955;-71
2023/01/12 04:15:41;;;;;;;;;;;8.50;99.90;;;;;;8387407;28;19931;-72
2023/01/12 04:19:42;;;;;;;;;;;8.50;99.90;;;;;;8391716;28;20326;-72
2023/01/12 04:23:44;;;;;;;;;;;8.40;99.90;;;;;;8363343;28;19947;-72
2023/01/12 04:27:47;;;;;;;;;;;8.40;99.90;;;;;;8381731;28;20070;-72
2023/01/12 04:31:48;;;;;;;;;;;8.50;99.90;;;;;;8384803;28;19928;-72
2023/01/12 04:35:50;;;;;;;;;;;8.50;99.90;;;;;;8380666;28;20432;-72
2023/01/12 04:39:52;;;;;;;;;;;8.50;99.90;;;;;;8389634;28;19924;-72
2023/01/12 04:43:53;;;;;;;;;;;8.50;99.90;;;;;;8369475;28;19929;-72
2023/01/12 04:47:59;;;;;;;;;;;8.50;99.90;;;;;;8390343;28;19929;-72
2023/01/12 04:52:00;;;;;;;;;;;8.60;99.90;;;;;;8383044;28;19933;-72
2023/01/12 04:56:05;;;;;;;;;;;8.60;99.90;;;;;;8383856;28;19924;-72
2023/01/12 05:00:08;;;;;;;;;;;8.60;99.90;;;;;;8387937;28;19985;-72
2023/01/12 05:04:10;;;;;;;;;;;8.60;99.90;;;;;;8382518;28;19935;-72
2023/01/12 05:12:32;;;;;;;;;;;8.70;99.90;;;;;;8385711;28;19932;-72
2023/01/12 05:16:34;;;;;;;;;;;8.70;99.90;;;;;;8393795;28;19928;-72
2023/01/12 05:20:36;;;;;;;;;;;8.70;99.90;;;;;;8368488;28;19962;-73
2023/01/12 05:24:37;;;;;;;;;;;8.70;99.90;;;;;;8389288;28;19940;-72
2023/01/12 05:28:39;;;;;;;;;;;8.70;99.90;;;;;;8385950;28;19924;-72
2023/01/12 05:32:41;;;;;;;;;;;8.70;99.90;;;;;;8374431;28;19956;-72
2023/01/12 05:36:42;;;;;;;;;;;8.70;99.90;;;;;;8393557;28;20431;-72
2023/01/12 05:40:44;;;;;;;;;;;8.70;99.90;;;;;;8362881;28;20308;-72
2023/01/12 05:44:46;;;;;;;;;;;8.70;99.90;;;;;;8368816;28;19935;-72
2023/01/12 05:48:48;;;;;;;;;;;8.70;99.90;;;;;;8392801;28;19931;-73
2023/01/12 05:52:50;;;;;;;;;;;8.80;99.90;;;;;;8395222;28;19928;-72
2023/01/12 05:56:52;;;;;;;;;;;8.80;99.90;;;;;;8397211;28;20007;-72
2023/01/12 06:00:53;;;;;;;;;;;8.80;99.90;;;;;;8387133;28;19933;-72
2023/01/12 06:04:55;;;;;;;;;;;8.80;99.90;;;;;;8391184;28;19935;-72
2023/01/12 06:08:58;;;;;;;;;;;8.80;99.90;;;;;;8397069;28;19982;-72
2023/01/12 06:17:20;;;;;;;;;;;8.90;99.90;;;;;;8396029;28;19935;-72
2023/01/12 06:21:22;;;;;;;;;;;8.90;99.90;;;;;;8393427;28;20011;-72
2023/01/12 06:25:24;;;;;;;;;;;9.00;99.90;;;;;;8390532;28;19938;-72
2023/01/12 06:29:25;;;;;;;;;;;9.00;99.90;;;;;;8387900;28;19971;-72
2023/01/12 06:33:27;;;;;;;;;;;9.00;99.90;;;;;;8393887;28;19932;-72
2023/01/12 06:37:29;;;;;;;;;;;9.00;99.90;;;;;;8385421;28;19932;-72
2023/01/12 06:45:53;;;;;;;;;;;9.10;99.90;;;;;;8392083;28;19972;-72
2023/01/12 06:49:55;;;;;;;;;;;9.10;99.90;;;;;;8389291;28;19983;-72
2023/01/12 06:53:56;;;;;;;;;;;9.20;99.90;;;;;;8391238;28;19929;-72
2023/01/12 06:58:03;;;;;;;;;;;9.20;99.90;;;;;;8384286;28;19924;-72
2023/01/12 07:02:04;;;;;;;;;;;9.30;99.90;;;;;;8392866;28;19935;-72
2023/01/12 07:06:06;;;;;;;;;;;9.30;99.90;;;;;;8391902;28;19935;-72
2023/01/12 07:10:11;;;;;;;;;;;9.30;99.90;;;;;;8383032;28;20018;-72
2023/01/12 07:14:13;;;;;;;;;;;9.30;99.90;;;;;;8385702;28;19990;-72
2023/01/12 07:18:15;;;;;;;;;;;9.40;99.90;;;;;;8382905;28;19964;-73
2023/01/12 07:22:16;;;;;;;;;;;9.40;99.90;;;;;;8388954;28;19932;-72
2023/01/12 07:26:18;;;;;;;;;;;9.40;99.90;;;;;;8384283;28;19932;-72
2023/01/12 07:30:20;;;;;;;;;;;9.40;99.90;;;;;;8372632;28;19928;-73
2023/01/12 07:34:22;;;;;;;;;;;9.50;99.90;;;;;;8376612;28;20043;-72
2023/01/12 07:38:24;;;;;;;;;;;9.50;99.90;;;;;;8384833;28;19924;-73
2023/01/12 07:42:26;;;;;;;;;;;9.50;99.90;;;;;;8390896;28;19933;-72
2023/01/12 07:46:27;;;;;;;;;;;9.50;99.90;;;;;;8388740;28;19925;-72
2023/01/12 07:50:29;;;;;;;;;;;9.60;99.90;;;;;;8390286;28;19939;-72
2023/01/12 07:54:32;;;;;;;;;;;9.60;99.90;;;;;;8395485;28;19924;-72
2023/01/12 07:58:34;;;;;;;;;;;9.70;99.90;;;;;;8366502;28;20022;-72
2023/01/12 08:02:36;;;;;;;;;;;9.70;99.90;;;;;;8376595;28;19928;-73
2023/01/12 08:06:38;;;;;;;;;;;9.70;99.90;;;;;;8384240;28;19924;-72
2023/01/12 08:10:42;;;;;;;;;;;9.80;99.90;;;;;;8364447;28;20410;-72
2023/01/12 08:14:44;;;;;;;;;;;9.80;99.90;;;;;;8376620;28;19954;-72
2023/01/12 08:18:48;;;;;;;;;;;9.90;99.90;;;;;;8391275;28;19925;-72
2023/01/12 08:22:51;;;;;;;;;;;9.90;99.90;;;;;;8388943;28;19928;-72
2023/01/12 08:26:54;;;;;;;;;;;10.00;99.90;;;;;;8387162;28;19932;-73
2023/01/12 08:30:56;;;;;;;;;;;10.00;99.90;;;;;;8371628;28;19978;-73
2023/01/12 08:34:59;;;;;;;;;;;10.00;99.90;;;;;;8406018;28;19971;-72
2023/01/12 08:39:03;;;;;;;;;;;10.10;99.90;;;;;;8389679;28;19935;-72
2023/01/12 08:43:04;;;;;;;;;;;10.10;99.90;;;;;;8380928;28;19963;-73
2023/01/12 08:47:13;;;;;;;;;;;10.20;99.90;;;;;;8387105;28;19956;-72
2023/01/12 08:51:15;;;;;;;;;;;10.20;99.90;;;;;;8408263;28;20400;-73
2023/01/12 08:55:17;;;;;;;;;;;10.20;99.90;;;;;;8400664;28;19936;-72
2023/01/12 08:59:18;;;;;;;;;;;10.20;99.90;;;;;;8389951;28;19964;-73
2023/01/12 09:03:20;;;;;;;;;;;10.30;99.90;;;;;;8393366;28;19932;-73
2023/01/12 09:07:21;;;;;;;;;;;10.30;99.90;;;;;;8394081;28;19931;-71
2023/01/12 09:11:24;;;;;;;;;;;10.30;99.90;;;;;;8392728;28;20406;-71
2023/01/12 09:15:26;;;;;;;;;;;10.30;99.90;;;;;;8405400;28;19970;-71
2023/01/12 09:19:27;;;;;;;;;;;10.30;99.90;;;;;;8391519;28;19932;-71
2023/01/12 09:23:29;;;;;;;;;;;10.40;99.90;;;;;;8397944;28;19928;-71
2023/01/12 09:27:31;;;;;;;;;;;10.40;99.90;;;;;;8393561;28;20358;-72
2023/01/12 09:31:33;;;;;;;;;;;10.40;99.90;;;;;;8392387;28;20091;-71
2023/01/12 09:35:35;;;;;;;;;;;10.50;99.90;;;;;;8393575;28;19955;-71
2023/01/12 09:39:36;;;;;;;;;;;10.40;99.90;;;;;;8388797;28;20303;-72
2023/01/12 09:48:01;;;;;;;;;;;10.50;99.90;;;;;;8394550;28;19933;-72
2023/01/12 09:52:12;;;;;;;;;;;10.50;99.90;;;;;;8381751;28;19932;-72
2023/01/12 09:56:27;;;;;;;;;;;10.50;99.90;;;;;;8372102;28;19924;-72
2023/01/12 10:00:29;;;;;;;;;;;10.50;99.90;;;;;;8377516;28;19928;-72
2023/01/12 10:04:35;;;;;;;;;;;10.50;99.90;;;;;;8394819;28;19925;-72
2023/01/12 10:08:38;;;;;;;;;;;10.60;99.90;;;;;;8379429;28;19933;-71
2023/01/12 10:12:44;;;;;;;;;;;10.60;99.90;;;;;;8376419;28;19968;-73
2023/01/12 10:16:45;;;;;;;;;;;10.60;99.90;;;;;;8382400;28;19928;-73
2023/01/12 10:20:47;;;;;;;;;;;10.70;99.90;;;;;;8391729;28;19940;-73
2023/01/12 10:24:49;;;;;;;;;;;10.70;99.90;;;;;;8388447;28;19971;-70
2023/01/12 10:28:53;;;;;;;;;;;10.70;99.90;;;;;;8374272;28;20391;-73
2023/01/12 10:32:54;;;;;;;;;;;10.70;99.90;;;;;;8394391;28;19925;-72
2023/01/12 10:37:03;;;;;;;;;;;10.80;99.90;;;;;;8374452;28;19999;-72
2023/01/12 10:41:18;;;;;;;;;;;10.80;99.90;;;;;;8390790;28;20402;-73
2023/01/12 10:45:21;;;;;;;;;;;10.80;99.90;;;;;;8393288;28;20044;-74
2023/01/12 10:49:23;;;;;;;;;;;10.80;99.90;;;;;;8396342;28;19931;-73
2023/01/12 10:53:30;;;;;;;;;;;10.80;99.90;;;;;;8390017;28;20372;-73
2023/01/12 10:57:32;;;;;;;;;;;10.80;99.90;;;;;;8365701;28;19924;-73
2023/01/12 11:01:52;;;;;;;;;;;10.80;99.90;;;;;;8380315;28;19928;-73
2023/01/12 11:05:54;;;;;;;;;;;10.70;99.90;;;;;;8392793;28;19924;-73
2023/01/12 11:10:15;;;;;;;;;;;10.70;99.90;;;;;;8390004;28;20367;-71
2023/01/12 11:14:24;;;;;;;;;;;10.70;99.90;;;;;;8380565;28;19973;-73
2023/01/12 11:18:37;;;;;;;;;;;10.60;99.90;;;;;;8392418;28;19925;-73
2023/01/12 11:22:39;;;;;;;;;;;10.60;99.90;;;;;;8387341;28;19931;-73
2023/01/12 11:26:50;;;;;;;;;;;10.60;99.90;;;;;;8372115;28;19925;-73
2023/01/12 11:31:05;;;;;;;;;;;10.60;99.90;;;;;;8386867;28;20395;-72
2023/01/12 11:35:18;;;;;;;;;;;10.60;99.90;;;;;;8393243;28;19928;-75
2023/01/12 11:39:22;;;;;;;;;;;10.60;99.90;;;;;;8378426;28;19924;-73
2023/01/12 11:43:49;;;;;;;;;;;10.60;99.90;;;;;;8373509;28;19929;-73
2023/01/12 11:47:53;;;;;;;;;;;10.60;99.90;;;;;;8384149;28;19928;-73
2023/01/12 11:51:57;;;;;;;;;;;10.70;99.90;;;;;;8393174;28;20019;-73
2023/01/12 11:55:59;;;;;;;;;;;10.70;99.90;;;;;;8389286;28;19929;-73
2023/01/12 12:00:19;;;;;;;;;;;10.70;99.90;;;;;;8395626;28;19924;-73
2023/01/12 12:04:39;;;;;;;;;;;10.70;99.90;;;;;;8383123;28;19925;-72
2023/01/12 12:08:46;;;;;;;;;;;10.70;99.90;;;;;;8381217;28;20034;-73
2023/01/12 12:12:57;;;;;;;;;;;10.70;99.90;;;;;;8382927;28;19972;-73
2023/01/12 12:17:03;;;;;;;;;;;10.70;99.90;;;;;;8384789;28;19925;-73
2023/01/12 12:21:23;;;;;;;;;;;10.70;99.90;;;;;;8371640;28;19951;-70
2023/01/12 12:25:43;;;;;;;;;;;10.70;99.90;;;;;;8390367;28;19982;-71
2023/01/12 12:29:54;;;;;;;;;;;10.70;99.90;;;;;;8390389;28;19939;-71
2023/01/12 12:33:56;;;;;;;;;;;10.70;99.90;;;;;;8376792;28;19932;-71
2023/01/12 12:38:03;;;;;;;;;;;10.70;99.90;;;;;;8390368;28;19978;-71
2023/01/12 12:46:31;;;;;;;;;;;10.70;99.90;;;;;;8384058;28;20350;-71
2023/01/12 12:50:39;;;;;;;;;;;10.70;99.90;;;;;;8370375;28;19925;-71
2023/01/12 12:54:41;;;;;;;;;;;10.70;99.90;;;;;;8373760;28;19968;-71
2023/01/12 12:58:46;;;;;;;;;;;10.70;99.90;;;;;;8391807;28;19928;-71
2023/01/12 13:02:52;;;;;;;;;;;10.70;99.90;;;;;;8392435;28;19943;-71
2023/01/12 13:07:02;;;;;;;;;;;10.70;99.90;;;;;;8395575;28;19954;-71
2023/01/12 13:11:04;;;;;;;;;;;10.70;99.90;;;;;;8395493;28;19924;-71
2023/01/12 13:15:31;;;;;;;;;;;10.70;99.90;;;;;;8376881;28;19928;-72
2023/01/12 13:19:40;;;;;;;;;;;10.70;99.90;;;;;;8390178;28;20015;-74
2023/01/12 13:23:43;;;;;;;;;;;10.70;99.90;;;;;;8385966;28;20339;-74
2023/01/12 13:28:00;;;;;;;;;;;10.70;99.90;;;;;;8380495;28;19928;-71
2023/01/12 13:32:20;;;;;;;;;;;10.60;99.90;;;;;;8391268;28;19935;-71
2023/01/12 13:36:29;;;;;;;;;;;10.60;99.90;;;;;;8393722;28;20300;-71
2023/01/12 13:40:31;;;;;;;;;;;10.60;99.90;;;;;;8374112;28;20368;-72
2023/01/12 13:44:35;;;;;;;;;;;10.60;99.90;;;;;;8392482;28;19924;-73
2023/01/12 13:48:40;;;;;;;;;;;10.60;99.90;;;;;;8394553;28;19925;-72
2023/01/12 13:52:43;;;;;;;;;;;10.60;99.90;;;;;;8393559;28;19968;-72
2023/01/12 13:56:51;;;;;;;;;;;10.60;99.90;;;;;;8373606;28;20402;-72
2023/01/12 14:01:00;;;;;;;;;;;10.60;99.90;;;;;;8389869;28;19955;-72
2023/01/12 14:05:21;;;;;;;;;;;10.60;99.90;;;;;;8391603;28;19925;-72
2023/01/12 14:09:23;;;;;;;;;;;10.60;99.90;;;;;;8388379;28;19939;-72
2023/01/12 14:13:30;;;;;;;;;;;10.60;99.90;;;;;;8388348;28;20368;-71
2023/01/12 14:17:48;;;;;;;;;;;10.60;99.90;;;;;;8383537;28;20007;-71
2023/01/12 14:21:54;;;;;;;;;;;10.60;99.90;;;;;;8368822;28;19929;-72
2023/01/12 14:26:10;;;;;;;;;;;10.60;99.90;;;;;;8375289;28;19931;-71
2023/01/12 14:30:12;;;;;;;;;;;10.60;99.90;;;;;;8387525;28;19987;-74
2023/01/12 14:34:22;;;;;;;;;;;10.60;99.90;;;;;;8404972;28;19928;-72
2023/01/12 14:38:25;;;;;;;;;;;10.60;99.90;;;;;;8394381;28;19932;-74
2023/01/12 14:46:48;;;;;;;;;;;10.60;99.90;;;;;;8389250;28;19925;-73
2023/01/12 14:51:16;;;;;;;;;;;10.60;99.90;;;;;;8392984;28;19932;-74
2023/01/12 14:55:25;;;;;;;;;;;10.60;99.90;;;;;;8368322;28;20391;-73
2023/01/12 14:59:30;;;;;;;;;;;10.60;99.90;;;;;;8377735;28;19989;-72
2023/01/12 15:03:32;;;;;;;;;;;10.60;99.90;;;;;;8368557;28;19951;-72
2023/01/12 15:07:57;;;;;;;;;;;10.60;99.90;;;;;;8386044;28;19925;-73
2023/01/12 15:12:19;;;;;;;;;;;10.60;99.90;;;;;;8387276;28;19928;-73
2023/01/12 15:29:30;;;;;;;;;;;10.50;99.90;;;;;;8386185;28;19978;-73
2023/01/12 15:33:32;;;;;;;;;;;10.50;99.90;;;;;;8383756;28;19932;-72
2023/01/12 15:37:34;;;;;;;;;;;10.50;99.90;;;;;;8394206;28;19932;-72
2023/01/12 15:45:58;;;;;;;;;;;10.50;99.90;;;;;;8386526;28;19928;-72
2023/01/12 15:50:00;;;;;;;;;;;10.50;99.90;;;;;;8380359;28;20577;-72
2023/01/12 15:54:02;;;;;;;;;;;10.50;99.90;;;;;;8378459;28;19954;-72
2023/01/12 15:58:04;;;;;;;;;;;10.50;99.90;;;;;;8379238;28;19932;-72
2023/01/12 16:02:20;;;;;;;;;;;10.50;99.90;;;;;;8369653;28;19936;-72
2023/01/12 16:06:28;;;;;;;;;;;10.50;99.90;;;;;;8388745;28;19977;-73
2023/01/12 16:20:36;;;;;;;;;;;10.50;99.90;;;;;;8386010;28;19927;-72
2023/01/12 16:24:38;;;;;;;;;;;10.50;99.90;;;;;;8366429;28;19928;-72
2023/01/12 16:28:40;;;;;;;;;;;10.40;99.90;;;;;;8403914;28;20159;-72
2023/01/12 16:32:45;;;;;;;;;;;10.50;99.90;;;;;;8389556;28;19933;-72
2023/01/12 16:36:47;;;;;;;;;;;10.50;99.90;;;;;;8396801;28;19924;-70
2023/01/12 16:40:50;;;;;;;;;;;10.40;99.90;;;;;;8390811;28;19972;-71
2023/01/12 16:44:51;;;;;;;;;;;10.50;99.90;;;;;;8375945;28;20051;-71
2023/01/12 16:48:55;;;;;;;;;;;10.50;99.90;;;;;;8395957;28;20373;-74
2023/01/12 16:52:56;;;;;;;;;;;10.40;99.90;;;;;;8376109;28;20288;-73
2023/01/12 16:56:58;;;;;;;;;;;10.50;99.90;;;;;;8389571;28;19928;-73
2023/01/12 17:01:00;;;;;;;;;;;10.50;99.90;;;;;;8393547;28;19924;-71
2023/01/12 17:05:01;;;;;;;;;;;10.50;99.90;;;;;;8389527;28;19924;-71
2023/01/12 17:09:05;;;;;;;;;;;10.50;99.90;;;;;;8394611;28;19975;-70
2023/01/12 17:13:06;;;;;;;;;;;10.50;99.90;;;;;;8383087;28;19947;-72
2023/01/12 17:17:09;;;;;;;;;;;10.50;99.90;;;;;;8373713;28;20499;-72
2023/01/12 17:21:12;;;;;;;;;;;10.50;99.90;;;;;;8387014;28;19929;-72
2023/01/12 17:25:14;;;;;;;;;;;10.50;99.90;;;;;;8389541;28;19925;-71
2023/01/12 17:29:16;;;;;;;;;;;10.50;99.90;;;;;;8374977;28;19970;-71
2023/01/12 17:33:18;;;;;;;;;;;10.40;99.90;;;;;;8397524;28;19971;-71
2023/01/12 17:37:20;;;;;;;;;;;10.50;99.90;;;;;;8375796;28;20355;-72
2023/01/12 17:45:42;;;;;;;;;;;10.40;99.90;;;;;;8396905;28;19928;-72
2023/01/12 17:49:46;;;;;;;;;;;10.50;99.90;;;;;;8378546;28;19963;-73
2023/01/12 17:53:51;;;;;;;;;;;10.50;99.90;;;;;;8380639;28;19935;-71
2023/01/12 17:57:53;;;;;;;;;;;10.50;99.90;;;;;;8392941;28;19931;-71
2023/01/12 18:01:55;;;;;;;;;;;10.50;99.90;;;;;;8394021;28;19932;-71
2023/01/12 18:05:57;;;;;;;;;;;10.40;99.90;;;;;;8389399;28;19968;-74
2023/01/12 18:10:09;;;;;;;;;;;10.40;99.90;;;;;;8387571;28;19932;-72
2023/01/12 18:14:11;;;;;;;;;;;10.40;99.90;;;;;;8389086;28;20002;-72
2023/01/12 18:18:12;;;;;;;;;;;10.40;99.90;;;;;;8373192;28;20395;-72
2023/01/12 18:22:14;;;;;;;;;;;10.40;99.90;;;;;;8391958;28;19925;-72
2023/01/12 18:26:17;;;;;;;;;;;10.40;99.90;;;;;;8371528;28;19925;-72
2023/01/12 18:30:19;;;;;;;;;;;10.40;99.90;;;;;;8377821;28;20212;-71
2023/01/12 18:44:27;;;;;;;;;;;10.40;99.90;;;;;;8381018;28;19947;-72
2023/01/12 18:48:29;;;;;;;;;;;10.40;99.90;;;;;;8377522;28;19929;-72
2023/01/12 18:56:51;;;;;;;;;;;10.40;99.90;;;;;;8372852;28;19935;-72
2023/01/12 19:00:57;;;;;;;;;;;10.40;99.90;;;;;;8389157;28;20398;-72
2023/01/12 19:09:34;;;;;;;;;;;10.30;99.90;;;;;;8377581;28;19925;-73
2023/01/12 19:17:56;;;;;;;;;;;10.30;99.90;;;;;;8384135;28;19928;-72
2023/01/12 19:30:38;;;;;;;;;;;10.30;99.90;;;;;;8383565;28;19925;-72
2023/01/12 19:34:39;;;;;;;;;;;10.30;99.90;;;;;;8384249;28;19936;-71
2023/01/12 19:38:47;;;;;;;;;;;10.30;99.90;;;;;;8384598;28;19928;-73
2023/01/12 19:43:11;;;;;;;;;;;10.30;99.90;;;;;;8390891;28;20427;-71
2023/01/12 19:47:13;;;;;;;;;;;10.30;99.90;;;;;;8373139;28;19925;-72
2023/01/12 19:51:14;;;;;;;;;;;10.30;99.90;;;;;;8393531;28;19931;-73
2023/01/12 19:55:19;;;;;;;;;;;10.30;99.90;;;;;;8374140;28;19998;-72
2023/01/12 19:59:23;;;;;;;;;;;10.30;99.90;;;;;;8368287;28;19932;-72
2023/01/12 20:03:26;;;;;;;;;;;10.30;99.90;;;;;;8379500;28;20379;-72
2023/01/12 20:07:28;;;;;;;;;;;10.30;99.90;;;;;;8396357;28;19931;-71
2023/01/12 20:11:32;;;;;;;;;;;10.30;99.90;;;;;;8390739;28;19928;-72
2023/01/12 20:15:36;;;;;;;;;;;10.30;99.90;;;;;;8391160;28;19995;-73
2023/01/12 20:19:38;;;;;;;;;;;10.30;99.90;;;;;;8400276;28;19925;-72
2023/01/12 20:23:39;;;;;;;;;;;10.30;99.90;;;;;;8393800;28;19931;-73
2023/01/12 20:27:41;;;;;;;;;;;10.30;99.90;;;;;;8390325;28;19929;-72
2023/01/12 20:31:43;;;;;;;;;;;10.30;99.90;;;;;;8391375;28;19935;-72
2023/01/12 20:35:46;;;;;;;;;;;10.30;99.90;;;;;;8387515;28;19978;-71
2023/01/12 20:39:51;;;;;;;;;;;10.30;99.90;;;;;;8394256;28;19924;-72
2023/01/12 20:43:53;;;;;;;;;;;10.30;99.90;;;;;;8393477;28;19935;-72
2023/01/12 20:47:55;;;;;;;;;;;10.30;99.90;;;;;;8392859;28;19970;-73
2023/01/12 20:51:57;;;;;;;;;;;10.30;99.90;;;;;;8398689;28;19928;-71
2023/01/12 20:55:59;;;;;;;;;;;10.30;99.90;;;;;;8395090;28;19925;-72
2023/01/12 21:00:01;;;;;;;;;;;10.30;99.90;;;;;;8394195;28;19925;-72
2023/01/12 21:04:02;;;;;;;;;;;10.30;99.90;;;;;;8387959;28;19928;-72
2023/01/12 21:08:04;;;;;;;;;;;10.30;99.90;;;;;;8389655;28;19925;-72
2023/01/12 21:12:09;;;;;;;;;;;10.20;99.90;;;;;;8397064;28;19932;-73
2023/01/12 21:16:12;;;;;;;;;;;10.10;99.90;;;;;;8394690;28;19929;-75
2023/01/12 21:20:14;;;;;;;;;;;10.00;99.90;;;;;;8391396;28;19925;-73
2023/01/12 21:24:15;;;;;;;;;;;10.00;99.90;;;;;;8391464;28;19960;-73
2023/01/12 21:28:17;;;;;;;;;;;10.10;99.90;;;;;;8390096;28;20280;-74
2023/01/12 21:32:22;;;;;;;;;;;10.10;99.90;;;;;;8372568;28;19931;-73
2023/01/12 21:36:23;;;;;;;;;;;10.10;99.90;;;;;;8389874;28;19931;-74
2023/01/12 21:40:25;;;;;;;;;;;10.10;99.90;;;;;;8392419;28;20261;-74
2023/01/12 21:44:27;;;;;;;;;;;10.10;99.90;;;;;;8393663;28;19924;-73
2023/01/12 21:48:28;;;;;;;;;;;10.00;99.90;;;;;;8389219;28;20265;-74
2023/01/12 21:52:33;;;;;;;;;;;10.00;99.90;;;;;;8391598;28;21220;-73
2023/01/12 21:56:34;;;;;;;;;;;9.90;99.90;;;;;;8391112;28;19924;-74
2023/01/12 22:00:36;;;;;;;;;;;9.80;99.90;;;;;;8393260;28;20269;-72
2023/01/12 22:04:38;;;;;;;;;;;9.70;99.90;;;;;;8383932;28;19925;-71
2023/01/12 22:08:40;;;;;;;;;;;9.70;99.90;;;;;;8381006;28;19959;-72
2023/01/12 22:12:41;;;;;;;;;;;9.70;99.90;;;;;;8395357;28;19930;-71
2023/01/12 22:16:43;;;;;;;;;;;9.70;99.90;;;;;;8386958;28;19925;-72
2023/01/12 22:20:45;;;;;;;;;;;9.70;99.90;;;;;;8374479;28;20348;-72
2023/01/12 22:24:46;;;;;;;;;;;9.70;99.90;;;;;;8374847;28;20381;-73
2023/01/12 22:28:48;;;;;;;;;;;9.70;99.90;;;;;;8362477;28;20019;-73
2023/01/12 22:32:56;;;;;;;;;;;9.70;99.90;;;;;;8391198;28;19976;-72
2023/01/12 22:36:58;;;;;;;;;;;9.60;99.90;;;;;;8369982;28;19928;-73
2023/01/12 22:41:06;;;;;;;;;;;9.60;99.90;;;;;;8380590;28;19976;-72
2023/01/12 22:45:08;;;;;;;;;;;9.50;99.90;;;;;;8372267;28;19979;-72
2023/01/12 22:49:10;;;;;;;;;;;9.40;99.90;;;;;;8378529;28;19929;-72
2023/01/12 22:53:12;;;;;;;;;;;9.40;99.90;;;;;;8387829;28;20406;-73
2023/01/12 22:57:13;;;;;;;;;;;9.40;99.90;;;;;;8384806;28;19931;-73
2023/01/12 23:01:16;;;;;;;;;;;9.40;99.90;;;;;;8390632;28;19929;-73
2023/01/12 23:05:17;;;;;;;;;;;9.50;99.90;;;;;;8393508;28;19930;-72
2023/01/12 23:09:19;;;;;;;;;;;9.50;99.90;;;;;;8382315;28;19924;-74
2023/01/12 23:13:21;;;;;;;;;;;9.50;99.90;;;;;;8368429;28;20411;-73
2023/01/12 23:17:22;;;;;;;;;;;9.60;99.90;;;;;;8382203;28;19924;-72
2023/01/12 23:21:25;;;;;;;;;;;9.50;99.90;;;;;;8385656;28;19932;-73
2023/01/12 23:25:27;;;;;;;;;;;9.50;99.90;;;;;;8384799;28;20367;-73
2023/01/12 23:29:29;;;;;;;;;;;9.40;99.90;;;;;;8373921;28;19964;-74
2023/01/12 23:33:31;;;;;;;;;;;9.20;99.90;;;;;;8385209;28;19971;-72
2023/01/12 23:37:33;;;;;;;;;;;9.10;99.90;;;;;;8384615;28;20363;-74
2023/01/12 23:41:35;;;;;;;;;;;9.00;99.90;;;;;;8384894;28;19936;-74
2023/01/12 23:45:37;;;;;;;;;;;8.90;99.90;;;;;;8375581;28;19947;-74
2023/01/12 23:49:39;;;;;;;;;;;8.80;99.90;;;;;;8366776;28;20345;-74
2023/01/12 23:53:40;;;;;;;;;;;8.80;99.90;;;;;;8378343;28;19924;-73
2023/01/12 23:57:44;;;;;;;;;;;8.70;99.90;;;;;;8382063;28;19933;-72
